createdAt,value
2023-01-31T00:01:34.163Z,4.97
2023-01-31T00:04:04.417Z,3.60
2023-01-31T00:06:33.836Z,3.53
2023-01-31T00:09:02.155Z,3.00
2023-01-31T00:11:30.329Z,3.00
2023-01-31T00:13:59.402Z,3.60
2023-01-31T00:16:26.974Z,2.83
2023-01-31T00:18:54.144Z,3.47
2023-01-31T00:21:24.587Z,3.70
2023-01-31T00:23:53.171Z,4.25
2023-01-31T00:26:25.469Z,4.38
2023-01-31T00:28:54.949Z,4.70
2023-01-31T00:31:24.138Z,3.53
2023-01-31T00:33:53.445Z,4.78
2023-01-31T00:36:23.603Z,3.83
2023-01-31T00:38:53.241Z,3.67
2023-01-31T00:41:21.499Z,4.68
2023-01-31T00:43:49.363Z,4.13
2023-01-31T00:46:16.809Z,3.85
2023-01-31T00:48:44.013Z,3.65
2023-01-31T00:51:10.835Z,3.72
2023-01-31T00:53:38.443Z,4.30
2023-01-31T00:56:08.444Z,3.63
2023-01-31T00:58:37.270Z,4.30
2023-01-31T01:01:15.082Z,4.20
2023-01-31T01:03:43.730Z,3.50
2023-01-31T01:06:11.673Z,4.10
2023-01-31T01:08:40.488Z,3.60
2023-01-31T01:11:13.993Z,3.53
2023-01-31T01:13:41.688Z,3.22
2023-01-31T01:16:11.491Z,3.40
2023-01-31T01:18:40.082Z,3.30
2023-01-31T01:21:15.264Z,3.20
2023-01-31T01:23:43.141Z,3.63
2023-01-31T01:26:29.519Z,5.15
2023-01-31T01:28:58.119Z,3.88
2023-01-31T01:31:32.512Z,4.00
2023-01-31T01:34:03.059Z,3.20
2023-01-31T01:36:34.643Z,3.40
2023-01-31T01:39:03.533Z,3.58
2023-01-31T01:41:33.543Z,3.20
2023-01-31T01:44:02.375Z,3.08
2023-01-31T01:46:43.822Z,3.27
2023-01-31T01:49:33.670Z,2.90
2023-01-31T01:52:05.626Z,3.95
2023-01-31T01:54:50.726Z,3.50
2023-01-31T01:57:21.307Z,3.58
2023-01-31T02:00:14.781Z,3.37
2023-01-31T02:02:44.212Z,3.55
2023-01-31T02:05:14.883Z,2.78
2023-01-31T02:07:43.064Z,3.15
2023-01-31T02:10:22.974Z,3.45
2023-01-31T02:12:50.095Z,3.93
2023-01-31T02:15:17.290Z,3.33
2023-01-31T02:17:44.159Z,5.32
2023-01-31T02:20:39.468Z,5.88
2023-01-31T02:23:33.350Z,5.10
2023-01-31T02:26:23.544Z,3.90
2023-01-31T02:29:16.759Z,4.97
2023-01-31T02:32:13.168Z,4.53
2023-01-31T02:35:17.748Z,3.53
2023-01-31T02:38:05.385Z,4.10
2023-01-31T02:40:34.965Z,5.10
2023-01-31T02:44:11.744Z,5.40
2023-01-31T02:47:14.125Z,5.75
2023-01-31T02:49:45.929Z,5.43
2023-01-31T02:52:33.070Z,5.32
2023-01-31T02:55:46.799Z,6.50
2023-01-31T02:58:17.752Z,6.22
2023-01-31T03:00:46.916Z,6.30
2023-01-31T03:03:21.774Z,5.63
2023-01-31T03:06:23.295Z,6.40
2023-01-31T03:09:02.803Z,5.77
2023-01-31T03:11:49.119Z,5.20
2023-01-31T03:15:01.580Z,5.10
2023-01-31T03:17:38.303Z,5.28
2023-01-31T03:20:13.127Z,6.28
2023-01-31T03:22:45.606Z,5.30
2023-01-31T03:25:17.112Z,5.70
2023-01-31T03:27:52.793Z,5.10
2023-01-31T03:30:27.814Z,4.68
2023-01-31T03:33:01.430Z,8.25
2023-01-31T03:35:32.514Z,5.47
2023-01-31T03:38:22.870Z,7.07
2023-01-31T03:41:09.928Z,6.72
2023-01-31T03:43:44.809Z,6.07
2023-01-31T03:46:20.997Z,5.75
2023-01-31T03:48:52.268Z,5.40
2023-01-31T03:51:25.841Z,6.65
2023-01-31T03:53:58.368Z,5.88
2023-01-31T03:56:33.594Z,6.38
2023-01-31T03:59:04.785Z,6.50
2023-01-31T04:01:35.277Z,6.90
2023-01-31T04:04:08.293Z,6.55
2023-01-31T04:06:35.163Z,5.43
2023-01-31T04:09:02.370Z,6.10
2023-01-31T04:11:29.242Z,5.25
2023-01-31T04:13:56.624Z,6.77
2023-01-31T04:16:23.825Z,5.32
2023-01-31T04:18:51.838Z,4.97
2023-01-31T04:21:18.666Z,6.65
2023-01-31T04:23:45.856Z,6.55
2023-01-31T04:26:12.709Z,6.43
2023-01-31T04:28:40.545Z,6.93
2023-01-31T04:31:07.401Z,6.72
2023-01-31T04:33:34.644Z,5.90
2023-01-31T04:36:02.034Z,5.57
2023-01-31T04:38:29.140Z,5.63
2023-01-31T04:40:55.921Z,4.18
2023-01-31T04:43:23.039Z,4.53
2023-01-31T04:45:49.880Z,5.03
2023-01-31T04:48:17.044Z,6.53
2023-01-31T04:50:43.877Z,5.87
2023-01-31T04:53:11.145Z,5.05
2023-01-31T04:55:37.921Z,4.30
2023-01-31T04:58:06.756Z,5.40
2023-01-31T05:00:34.656Z,5.00
2023-01-31T05:03:03.408Z,4.97
2023-01-31T05:05:30.440Z,5.10
2023-01-31T05:07:57.545Z,7.07
2023-01-31T05:10:24.318Z,12.95
2023-01-31T05:12:51.609Z,8.85
2023-01-31T05:15:18.886Z,13.57
2023-01-31T05:17:51.489Z,10.25
2023-01-31T05:20:18.375Z,7.68
2023-01-31T05:22:49.261Z,6.38
2023-01-31T05:25:16.090Z,5.78
2023-01-31T05:27:44.958Z,5.80
2023-01-31T05:30:12.570Z,6.47
2023-01-31T05:32:40.008Z,5.80
2023-01-31T05:35:07.118Z,5.88
2023-01-31T05:37:34.275Z,6.05
2023-01-31T05:40:01.084Z,6.67
2023-01-31T05:42:28.397Z,5.05
2023-01-31T05:44:55.207Z,4.78
2023-01-31T05:47:24.884Z,5.55
2023-01-31T05:49:51.692Z,6.10
2023-01-31T05:52:18.767Z,4.80
2023-01-31T05:54:45.571Z,4.60
2023-01-31T05:57:14.546Z,8.52
2023-01-31T05:59:41.953Z,5.65
2023-01-31T06:02:11.397Z,6.18
2023-01-31T06:04:38.294Z,5.40
2023-01-31T06:07:05.497Z,7.28
2023-01-31T06:09:32.306Z,8.23
2023-01-31T06:11:59.922Z,6.85
2023-01-31T06:14:26.778Z,8.07
2023-01-31T06:16:53.932Z,6.30
2023-01-31T06:19:25.392Z,8.13
2023-01-31T06:21:52.677Z,9.88
2023-01-31T06:24:19.495Z,6.60
2023-01-31T06:26:46.698Z,7.30
2023-01-31T06:29:13.549Z,5.90
2023-01-31T06:31:45.143Z,6.70
2023-01-31T06:34:12.098Z,6.55
2023-01-31T06:36:39.211Z,5.95
2023-01-31T06:39:06.086Z,8.50
2023-01-31T06:41:33.316Z,9.40
2023-01-31T06:44:00.186Z,6.80
2023-01-31T06:46:27.347Z,6.57
2023-01-31T06:48:54.623Z,7.32
2023-01-31T06:51:21.739Z,11.07
2023-01-31T06:53:48.629Z,7.33
2023-01-31T06:56:15.777Z,5.93
2023-01-31T06:58:42.531Z,6.10
2023-01-31T07:01:12.254Z,5.50
2023-01-31T07:03:39.664Z,7.50
2023-01-31T07:06:08.365Z,5.70
2023-01-31T07:08:36.309Z,8.95
2023-01-31T07:11:04.595Z,8.25
2023-01-31T07:13:31.716Z,6.68
2023-01-31T07:15:58.849Z,7.15
2023-01-31T07:18:25.704Z,6.20
2023-01-31T07:20:52.859Z,8.10
2023-01-31T07:23:19.796Z,7.32
2023-01-31T07:25:46.919Z,6.50
2023-01-31T07:28:13.707Z,5.60
2023-01-31T07:30:43.947Z,5.47
2023-01-31T07:33:11.798Z,6.55
2023-01-31T07:35:39.031Z,6.18
2023-01-31T07:38:05.858Z,6.90
2023-01-31T07:40:33.293Z,5.43
2023-01-31T07:43:00.240Z,5.20
2023-01-31T07:45:27.726Z,5.68
2023-01-31T07:47:58.035Z,6.28
2023-01-31T07:50:27.288Z,5.30
2023-01-31T07:52:54.310Z,6.72
2023-01-31T07:55:21.968Z,6.70
2023-01-31T07:57:48.959Z,7.15
2023-01-31T08:00:48.636Z,6.38
2023-01-31T08:03:34.654Z,5.60
2023-01-31T08:06:04.912Z,7.22
2023-01-31T08:08:31.696Z,8.43
2023-01-31T08:10:58.942Z,8.77
2023-01-31T08:13:27.069Z,7.70
2023-01-31T08:15:54.458Z,8.82
2023-01-31T08:18:21.317Z,8.50
2023-01-31T08:20:48.483Z,7.63
2023-01-31T08:23:15.349Z,6.50
2023-01-31T08:25:42.915Z,7.60
2023-01-31T08:28:10.029Z,6.68
2023-01-31T08:30:41.766Z,6.57
2023-01-31T08:33:10.037Z,6.83
2023-01-31T08:35:37.916Z,5.80
2023-01-31T08:38:16.059Z,5.22
2023-01-31T08:40:44.572Z,5.30
2023-01-31T08:43:11.451Z,7.38
2023-01-31T08:45:38.695Z,6.93
2023-01-31T08:48:06.074Z,8.60
2023-01-31T08:50:33.828Z,8.30
2023-01-31T08:53:04.738Z,6.72
2023-01-31T08:55:32.608Z,9.65
2023-01-31T08:58:00.491Z,14.70
2023-01-31T09:00:28.933Z,12.65
2023-01-31T09:03:00.789Z,11.35
2023-01-31T09:05:30.097Z,10.63
2023-01-31T09:07:57.319Z,8.10
2023-01-31T09:10:24.942Z,8.23
2023-01-31T09:12:51.812Z,8.88
2023-01-31T09:15:19.362Z,7.78
2023-01-31T09:17:46.338Z,7.90
2023-01-31T09:20:13.527Z,6.70
2023-01-31T09:22:40.339Z,7.70
2023-01-31T09:25:08.284Z,6.75
2023-01-31T09:27:38.047Z,6.72
2023-01-31T09:30:07.927Z,6.93
2023-01-31T09:32:35.175Z,6.93
2023-01-31T09:35:02.623Z,6.43
2023-01-31T09:37:31.015Z,6.68
2023-01-31T09:39:58.378Z,5.80
2023-01-31T09:42:36.144Z,6.07
2023-01-31T09:45:15.172Z,5.35
2023-01-31T09:47:48.301Z,5.93
2023-01-31T09:50:22.982Z,5.75
2023-01-31T09:52:50.034Z,6.30
2023-01-31T09:55:19.344Z,8.35
2023-01-31T09:58:13.750Z,6.93
2023-01-31T10:00:50.287Z,10.93
2023-01-31T10:03:28.563Z,13.02
2023-01-31T10:06:08.984Z,11.98
2023-01-31T10:08:36.104Z,11.05
2023-01-31T10:11:07.718Z,8.43
2023-01-31T10:13:39.310Z,6.93
2023-01-31T10:16:17.788Z,6.32
2023-01-31T10:18:54.119Z,6.95
2023-01-31T10:21:29.196Z,7.30
2023-01-31T10:24:02.583Z,5.82
2023-01-31T10:26:37.226Z,5.40
2023-01-31T10:29:21.811Z,5.80
2023-01-31T10:32:35.420Z,4.38
2023-01-31T10:35:12.570Z,4.15
2023-01-31T10:37:46.669Z,3.78
2023-01-31T10:40:22.400Z,4.00
2023-01-31T10:42:58.051Z,4.47
2023-01-31T10:45:34.116Z,4.30
2023-01-31T10:48:16.394Z,5.00
2023-01-31T10:50:52.265Z,4.15
2023-01-31T10:53:37.812Z,4.33
2023-01-31T10:56:08.362Z,4.63
2023-01-31T10:58:36.552Z,5.03
2023-01-31T11:01:15.011Z,4.18
2023-01-31T11:03:49.645Z,4.85
2023-01-31T11:06:16.901Z,5.43
2023-01-31T11:08:49.460Z,5.35
2023-01-31T11:11:19.540Z,4.78
2023-01-31T11:14:00.148Z,3.67
2023-01-31T11:16:58.378Z,4.78
2023-01-31T11:19:34.859Z,4.60
2023-01-31T11:22:03.587Z,4.75
2023-01-31T11:24:33.694Z,4.18
2023-01-31T11:27:11.457Z,4.30
2023-01-31T11:29:43.609Z,3.50
2023-01-31T11:32:37.010Z,3.83
2023-01-31T11:35:07.942Z,3.83
2023-01-31T11:37:35.060Z,3.92
2023-01-31T11:40:19.774Z,3.80
2023-01-31T11:42:54.722Z,3.92
2023-01-31T11:45:27.675Z,4.13
2023-01-31T11:48:19.816Z,4.47
2023-01-31T11:50:54.299Z,4.70
2023-01-31T11:53:46.881Z,4.05
2023-01-31T11:56:22.174Z,5.30
2023-01-31T11:58:54.568Z,4.60
2023-01-31T12:01:24.323Z,4.60
2023-01-31T12:04:04.617Z,4.30
2023-01-31T12:06:40.688Z,4.25
2023-01-31T12:09:23.056Z,4.65
2023-01-31T12:11:56.767Z,4.20
2023-01-31T12:14:25.339Z,4.22
2023-01-31T12:16:55.767Z,5.30
2023-01-31T12:19:48.985Z,4.35
2023-01-31T12:22:30.140Z,3.70
2023-01-31T12:25:05.353Z,4.60
2023-01-31T12:27:38.497Z,4.47
2023-01-31T12:30:09.373Z,4.32
2023-01-31T12:32:42.483Z,4.60
2023-01-31T12:35:22.505Z,4.20
2023-01-31T12:38:08.613Z,4.70
2023-01-31T12:40:48.904Z,4.18
2023-01-31T12:43:47.621Z,3.55
2023-01-31T12:46:42.235Z,3.10
2023-01-31T12:49:24.644Z,3.90
2023-01-31T12:52:16.127Z,3.37
2023-01-31T12:55:12.413Z,3.58
2023-01-31T12:58:04.886Z,3.60
2023-01-31T13:01:18.008Z,3.63
2023-01-31T13:04:00.536Z,3.95
2023-01-31T13:06:43.493Z,3.70
2023-01-31T13:09:17.882Z,4.38
2023-01-31T13:12:08.101Z,4.32
2023-01-31T13:14:45.481Z,4.57
2023-01-31T13:17:17.325Z,4.40
2023-01-31T13:19:51.350Z,3.87
2023-01-31T13:22:27.924Z,4.85
2023-01-31T13:25:23.703Z,5.78
2023-01-31T13:28:05.363Z,4.80
2023-01-31T13:30:40.647Z,4.25
2023-01-31T13:33:23.177Z,4.80
2023-01-31T13:36:08.994Z,3.80
2023-01-31T13:38:42.552Z,3.88
2023-01-31T13:41:39.776Z,3.90
2023-01-31T13:44:13.691Z,3.70
2023-01-31T13:47:05.140Z,3.83
2023-01-31T13:49:37.195Z,3.42
2023-01-31T13:52:41.368Z,3.75
2023-01-31T13:55:17.304Z,3.58
2023-01-31T13:57:55.339Z,4.03
2023-01-31T14:00:43.437Z,4.23
2023-01-31T14:03:13.471Z,4.70
2023-01-31T14:05:49.261Z,4.00
2023-01-31T14:08:37.505Z,3.88
2023-01-31T14:11:25.613Z,4.50
2023-01-31T14:14:19.180Z,3.50
2023-01-31T14:16:49.331Z,4.38
2023-01-31T14:19:19.846Z,3.60
2023-01-31T14:22:03.430Z,3.47
2023-01-31T14:24:56.690Z,3.10
2023-01-31T14:27:43.602Z,3.70
2023-01-31T14:30:17.399Z,3.40
2023-01-31T14:32:48.929Z,4.65
2023-01-31T14:35:15.805Z,6.32
2023-01-31T14:37:52.593Z,5.00
2023-01-31T14:40:27.202Z,5.60
2023-01-31T14:43:43.817Z,6.63
2023-01-31T14:46:25.541Z,5.25
2023-01-31T14:49:07.864Z,7.53
2023-01-31T14:52:05.184Z,6.90
2023-01-31T14:54:41.944Z,3.97
2023-01-31T14:57:18.038Z,3.80
2023-01-31T14:59:54.031Z,4.82
2023-01-31T15:02:33.637Z,4.30
2023-01-31T15:05:05.143Z,5.82
2023-01-31T15:07:32.697Z,4.87
2023-01-31T15:09:59.826Z,5.25
2023-01-31T15:12:52.002Z,5.63
2023-01-31T15:15:38.518Z,5.85
2023-01-31T15:18:20.151Z,6.00
2023-01-31T15:20:51.697Z,6.60
2023-01-31T15:23:23.072Z,4.85
2023-01-31T15:25:52.122Z,4.47
2023-01-31T15:28:22.643Z,3.90
2023-01-31T15:30:50.927Z,4.70
2023-01-31T15:33:51.311Z,4.20
2023-01-31T15:36:43.540Z,5.15
2023-01-31T15:39:29.458Z,6.40
2023-01-31T15:41:56.563Z,6.10
2023-01-31T15:44:26.667Z,9.93
2023-01-31T15:46:55.861Z,8.07
2023-01-31T15:49:37.963Z,6.90
2023-01-31T15:52:22.450Z,7.75
2023-01-31T15:54:53.403Z,6.80
2023-01-31T15:57:22.135Z,5.55
2023-01-31T15:59:49.378Z,6.27
2023-01-31T16:02:24.778Z,7.45
2023-01-31T16:04:51.839Z,6.95
2023-01-31T16:07:21.109Z,8.20
2023-01-31T16:09:48.483Z,5.63
2023-01-31T16:12:16.721Z,6.33
2023-01-31T16:14:46.190Z,4.80
2023-01-31T16:17:13.814Z,6.00
2023-01-31T16:19:40.888Z,5.95
2023-01-31T16:22:40.808Z,6.40
2023-01-31T16:25:18.642Z,4.90
2023-01-31T16:27:46.003Z,5.35
2023-01-31T16:30:16.975Z,6.90
2023-01-31T16:32:46.514Z,5.85
2023-01-31T16:35:25.075Z,7.20
2023-01-31T16:38:26.845Z,6.10
2023-01-31T16:40:59.312Z,6.70
2023-01-31T16:43:29.071Z,7.00
2023-01-31T16:45:58.926Z,5.95
2023-01-31T16:48:29.316Z,5.40
2023-01-31T16:50:58.392Z,7.27
2023-01-31T16:53:39.962Z,7.88
2023-01-31T16:56:18.709Z,12.60
2023-01-31T16:58:58.542Z,11.02
2023-01-31T17:01:31.563Z,9.93
2023-01-31T17:04:20.330Z,8.70
2023-01-31T17:07:02.546Z,8.23
2023-01-31T17:09:30.054Z,8.52
2023-01-31T17:11:56.989Z,6.18
2023-01-31T17:14:24.184Z,6.00
2023-01-31T17:16:54.369Z,7.03
2023-01-31T17:19:21.714Z,4.93
2023-01-31T17:21:50.204Z,7.18
2023-01-31T17:24:19.894Z,8.60
2023-01-31T17:26:46.898Z,7.97
2023-01-31T17:29:14.256Z,10.10
2023-01-31T17:31:42.316Z,9.38
2023-01-31T17:34:15.416Z,8.85
2023-01-31T17:36:43.410Z,7.30
2023-01-31T17:39:10.541Z,7.18
2023-01-31T17:41:41.432Z,16.93
2023-01-31T17:44:13.212Z,11.85
2023-01-31T17:46:40.143Z,25.40
2023-01-31T17:49:07.298Z,28.88
2023-01-31T17:51:34.253Z,26.65
2023-01-31T17:54:01.435Z,31.40
2023-01-31T17:56:28.266Z,38.13
2023-01-31T17:58:55.430Z,44.10
2023-01-31T18:01:22.268Z,12.65
2023-01-31T18:03:50.574Z,7.80
2023-01-31T18:06:17.499Z,6.40
2023-01-31T18:08:44.610Z,9.00
2023-01-31T18:11:15.120Z,7.18
2023-01-31T18:13:44.029Z,5.57
2023-01-31T18:16:15.119Z,5.70
2023-01-31T18:18:45.736Z,5.97
2023-01-31T18:21:18.187Z,6.32
2023-01-31T18:23:53.230Z,7.82
2023-01-31T18:26:21.527Z,5.57
2023-01-31T18:28:49.056Z,5.68
2023-01-31T18:31:18.065Z,8.10
2023-01-31T18:33:47.166Z,8.40
2023-01-31T18:36:17.098Z,10.85
2023-01-31T18:38:46.211Z,12.07
2023-01-31T18:41:15.110Z,14.63
2023-01-31T18:43:43.093Z,9.87
2023-01-31T18:46:10.594Z,11.82
2023-01-31T18:48:40.682Z,12.45
2023-01-31T18:51:10.038Z,21.77
2023-01-31T18:53:40.048Z,11.43
2023-01-31T18:56:10.110Z,8.33
2023-01-31T18:58:39.256Z,16.75
2023-01-31T19:01:10.559Z,12.50
2023-01-31T19:03:38.437Z,13.43
2023-01-31T19:06:11.453Z,12.95
2023-01-31T19:08:39.026Z,11.73
2023-01-31T19:11:12.697Z,10.52
2023-01-31T19:13:41.124Z,12.05
2023-01-31T19:16:13.889Z,12.30
2023-01-31T19:18:41.221Z,10.73
2023-01-31T19:21:28.750Z,12.40
2023-01-31T19:23:59.354Z,11.25
2023-01-31T19:26:26.821Z,12.20
2023-01-31T19:28:54.528Z,11.13
2023-01-31T19:31:23.356Z,8.48
2023-01-31T19:33:52.828Z,7.60
2023-01-31T19:36:25.536Z,11.25
2023-01-31T19:38:53.086Z,9.05
2023-01-31T19:41:22.217Z,13.50
2023-01-31T19:43:54.658Z,15.00
2023-01-31T19:46:24.140Z,11.70
2023-01-31T19:48:51.721Z,8.98
2023-01-31T19:51:20.721Z,11.30
2023-01-31T19:53:48.949Z,12.38
2023-01-31T19:56:16.639Z,9.30
2023-01-31T19:58:43.913Z,10.37
2023-01-31T20:01:13.207Z,10.75
2023-01-31T20:03:40.588Z,10.60
2023-01-31T20:06:11.505Z,13.10
2023-01-31T20:08:39.131Z,11.25
2023-01-31T20:11:07.792Z,17.30
2023-01-31T20:13:35.389Z,20.20
2023-01-31T20:16:07.450Z,25.55
2023-01-31T20:18:37.095Z,40.70
2023-01-31T20:21:04.476Z,31.67
2023-01-31T20:23:31.629Z,28.57
2023-01-31T20:25:59.343Z,18.33
2023-01-31T20:28:27.351Z,9.10
2023-01-31T20:30:54.649Z,15.32
2023-01-31T20:33:22.408Z,17.90
2023-01-31T20:35:49.645Z,9.17
2023-01-31T20:38:18.230Z,43.00
2023-01-31T20:40:52.829Z,15.45
2023-01-31T20:43:21.794Z,10.63
2023-01-31T20:45:48.963Z,6.55
2023-01-31T20:48:16.968Z,15.37
2023-01-31T20:50:44.564Z,19.65
2023-01-31T20:53:21.051Z,18.88
2023-01-31T20:55:55.627Z,12.43
2023-01-31T20:58:23.638Z,16.88
2023-01-31T21:00:52.630Z,11.07
2023-01-31T21:03:19.945Z,14.20
2023-01-31T21:05:46.824Z,29.05
2023-01-31T21:08:14.010Z,22.17
2023-01-31T21:10:43.350Z,25.35
2023-01-31T21:13:10.512Z,18.37
2023-01-31T21:15:37.359Z,13.48
2023-01-31T21:18:04.548Z,22.90
2023-01-31T21:20:31.538Z,16.70
2023-01-31T21:22:58.805Z,9.10
2023-01-31T21:25:25.714Z,6.50
2023-01-31T21:27:53.252Z,5.57
2023-01-31T21:30:20.354Z,5.65
2023-01-31T21:32:47.644Z,5.15
2023-01-31T21:35:14.770Z,4.63
2023-01-31T21:37:41.843Z,12.27
2023-01-31T21:40:09.398Z,7.90
2023-01-31T21:42:36.617Z,6.93
2023-01-31T21:45:03.672Z,8.45
2023-01-31T21:47:32.779Z,7.47
2023-01-31T21:49:59.610Z,8.57
2023-01-31T21:52:26.783Z,13.95
2023-01-31T21:54:53.590Z,13.13
2023-01-31T21:57:20.807Z,11.07
2023-01-31T21:59:47.848Z,7.22
2023-01-31T22:02:15.067Z,7.27
2023-01-31T22:04:41.985Z,6.90
2023-01-31T22:07:09.123Z,6.80
2023-01-31T22:09:35.907Z,6.65
2023-01-31T22:12:03.056Z,6.55
2023-01-31T22:14:29.795Z,5.47
2023-01-31T22:16:56.980Z,8.10
2023-01-31T22:19:23.739Z,8.65
2023-01-31T22:21:50.864Z,7.10
2023-01-31T22:24:17.620Z,7.20
2023-01-31T22:26:45.094Z,5.83
2023-01-31T22:29:14.100Z,6.18
2023-01-31T22:31:42.319Z,7.78
2023-01-31T22:34:12.808Z,8.27
2023-01-31T22:36:40.343Z,7.70
2023-01-31T22:39:08.132Z,7.40
2023-01-31T22:41:35.263Z,8.05
2023-01-31T22:44:02.096Z,6.57
2023-01-31T22:46:29.688Z,6.10
2023-01-31T22:48:57.799Z,6.35
2023-01-31T22:51:27.456Z,5.97
2023-01-31T22:53:56.156Z,6.72
2023-01-31T22:56:26.946Z,6.03
2023-01-31T22:58:58.468Z,5.35
2023-01-31T23:01:29.874Z,7.32
2023-01-31T23:04:01.707Z,7.00
2023-01-31T23:06:29.203Z,7.43
2023-01-31T23:08:56.591Z,7.47
2023-01-31T23:11:24.542Z,6.18
2023-01-31T23:13:51.794Z,5.65
2023-01-31T23:16:42.341Z,6.63
2023-01-31T23:19:09.676Z,6.20
2023-01-31T23:21:42.800Z,6.55
2023-01-31T23:24:10.730Z,6.57
2023-01-31T23:26:38.119Z,6.28
2023-01-31T23:29:05.084Z,6.27
2023-01-31T23:31:32.643Z,6.00
2023-01-31T23:34:00.665Z,6.70
2023-01-31T23:36:28.338Z,6.30
2023-01-31T23:38:55.286Z,4.70
2023-01-31T23:41:22.449Z,6.93
2023-01-31T23:43:49.331Z,5.38
2023-01-31T23:46:16.658Z,4.53
2023-01-31T23:48:43.602Z,6.70
2023-01-31T23:51:10.791Z,15.38
2023-01-31T23:53:37.600Z,12.63
2023-01-31T23:56:04.976Z,19.85
2023-01-31T23:58:31.897Z,13.93
